Bei Facebook empfehlenBei Twitter postenGoogle plusPinterest

Das Wetter im Erzgebirge am 16.05.2017

Wetter und Klima am 16.05.2017 Holzhau im Erzgebirge (630m ü.NN)
Letzte gemessene Temperatur und Uhrzeit der Messung23:45:00 Uhr11.10 °C
Temperatur (Maximum / Höchstwert) und Uhrzeit der Messung15:00:00 Uhr21.90 °C
Temperatur (Minimum / Tiefstwert) und Uhrzeit der Messung05:30:002.90 °C
Errechneter Absolutwert der Temperaturschwankungen zwischen Tmin und Tmax des Tages19.00 K
Errechnete Tagesmitteltemperatur13.31354 °C
Gesamt - Niederschlag des Tages (in flüssiger Form)0.00 Liter / m²
Luftdruck (Maximum / Höchstwert) und Zeitpunkt der Messung01:30:00 Uhr1026.50 hPa
Luftdruck (Minimum / Tiefstwert) und Zeitpunkt der Messung19:30:00 Uhr1023.90 hPa
Errechneter Absolutwert der Luftdruckschwankungen des Tages2.60 hPa
Höchste gemessene Windgeschwindigkeit und Uhrzeit der Messung10:30:00 Uhr40.32 km/h
Errechnete Windhäufigkeit in Relation zu den Messwerten des Tages9.37500 %
Niedrigste Windkühle (Windchill) und Zeitpunkt der Messung05:30:00 Uhr2.90 °C
Taupunkt (Maximum / Höchstwert) und Uhrzeit der Messung08:30:00 Uhr10.40 °C
Taupunkt (Minimum / Tiefstwert) und Uhrzeit der Messung05:30:001.70 °C
Anzahl der automatisch eingelesenen Messwerte 96

Detaillierte Wetter- und Klima- Messwerte für den 16.05.2017 in Holzhau im Erzgebirge (630m ü.NN)
ZeitTemperaturLuftdruckRel. LuftfeuchteWindWindrichtungWindchillTaupunktNiederschlag l/m²
23:45:0011.10 °C1024.30 hPa80.00 %7.80 °C 
23:30:0011.20 °C1024.20 hPa79.00 %7.70 °C 
23:15:0011.40 °C1024.30 hPa78.00 %7.70 °C 
23:00:0011.40 °C1024.10 hPa79.00 %7.90 °C 
22:45:0011.40 °C1024.30 hPa77.00 %7.50 °C 
22:30:0011.90 °C1024.30 hPa75.00 %7.60 °C 
22:15:0012.50 °C1024.30 hPa74.00 %8.00 °C 
22:00:0013.00 °C1024.30 hPa72.00 %8.10 °C 
21:45:0013.40 °C1024.30 hPa71.00 %8.30 °C 
21:30:0013.80 °C1024.40 hPa70.00 %8.40 °C 
21:15:0014.10 °C1024.30 hPa69.00 %8.50 °C 
21:00:0014.40 °C1024.20 hPa67.00 %8.40 °C 
20:45:0014.80 °C1024.10 hPa65.00 %8.30 °C 
20:30:0015.30 °C1024.10 hPa63.00 %8.30 °C 
20:15:0015.80 °C1024.10 hPa60.00 %8.10 °C 
20:00:0016.10 °C1024.00 hPa57.00 %7.60 °C 
19:45:0016.60 °C1024.00 hPa56.00 %7.80 °C 
19:30:0016.90 °C1023.90 hPa54.00 %7.50 °C 
19:15:0017.40 °C1024.00 hPa53.00 %7.70 °C 
19:00:0018.10 °C1024.00 hPa53.00 %8.40 °C 
18:45:0018.10 °C1023.90 hPa54.00 %8.70 °C 
18:30:0017.90 °C1024.00 hPa54.00 %8.50 °C 
18:15:0018.20 °C1024.10 hPa53.00 %5.04 km/hSO18.20 °C8.50 °C 
18:00:0018.40 °C1024.10 hPa52.00 %8.40 °C 
17:45:0018.70 °C1024.30 hPa51.00 %8.40 °C 
17:30:0019.30 °C1024.50 hPa49.00 %8.30 °C 
17:15:0020.30 °C1024.40 hPa47.00 %8.60 °C 
17:00:0020.70 °C1024.30 hPa47.00 %9.00 °C 
16:45:0020.90 °C1024.60 hPa45.00 %8.50 °C 
16:30:0020.90 °C1024.60 hPa45.00 %8.50 °C 
16:15:0020.90 °C1024.70 hPa46.00 %3.96 km/hNNO20.90 °C8.90 °C 
16:00:0021.10 °C1024.80 hPa44.00 %8.40 °C 
15:45:0021.10 °C1024.80 hPa44.00 %8.40 °C 
15:30:0021.30 °C1024.80 hPa43.00 %8.20 °C 
15:15:0021.60 °C1024.80 hPa43.00 %8.50 °C 
15:00:0021.90 °C1024.90 hPa44.00 %9.10 °C 
14:45:0021.80 °C1025.20 hPa46.00 %9.70 °C 
14:30:0021.80 °C1025.00 hPa44.00 %9.00 °C 
14:15:0021.60 °C1025.10 hPa45.00 %9.20 °C 
14:00:0021.30 °C1025.20 hPa46.00 %3.96 km/hWNW21.30 °C9.20 °C 
13:45:0020.90 °C1025.30 hPa45.00 %14.40 km/hS20.90 °C8.50 °C 
13:30:0020.70 °C1025.50 hPa49.00 %9.60 °C 
13:15:0020.40 °C1025.40 hPa48.00 %9.00 °C 
13:00:0019.80 °C1025.60 hPa48.00 %8.50 °C 
12:45:0020.20 °C1025.50 hPa47.00 %11.52 km/hWNW20.20 °C8.50 °C 
12:30:0019.90 °C1025.60 hPa49.00 %8.90 °C 
12:15:0019.90 °C1025.50 hPa50.00 %9.20 °C 
12:00:0019.90 °C1025.70 hPa51.00 %9.50 °C 
11:45:0019.80 °C1025.80 hPa50.00 %9.10 °C 
11:30:0019.60 °C1025.80 hPa50.00 %8.90 °C 
11:15:0018.90 °C1025.90 hPa53.00 %9.10 °C 
11:00:0018.80 °C1025.90 hPa53.00 %9.00 °C 
10:45:0018.80 °C1025.90 hPa53.00 %9.00 °C 
10:30:0018.80 °C1026.00 hPa54.00 %40.32 km/hN19.00 °C9.30 °C 
10:15:0018.60 °C1026.40 hPa56.00 %19.44 km/hNO19.40 °C9.70 °C 
10:00:0018.20 °C1026.10 hPa59.00 %10.10 °C 
09:45:0017.50 °C1026.30 hPa61.00 %9.90 °C 
09:30:0017.10 °C1026.20 hPa63.00 %10.00 °C 
09:15:0016.40 °C1026.10 hPa64.00 %9.60 °C 
09:00:0016.30 °C1026.10 hPa65.00 %9.70 °C 
08:45:0015.80 °C1026.30 hPa68.00 %9.90 °C 
08:30:0014.80 °C1026.00 hPa75.00 %10.40 °C 
08:15:0013.80 °C1025.90 hPa77.00 %9.80 °C 
08:00:0012.90 °C1025.90 hPa79.00 %9.40 °C 
07:45:0011.30 °C1026.00 hPa82.00 %8.30 °C 
07:30:009.80 °C1025.90 hPa85.00 %7.40 °C 
07:15:007.90 °C1025.80 hPa89.00 %6.20 °C 
07:00:006.20 °C1025.80 hPa91.00 %4.80 °C 
06:45:005.50 °C1025.90 hPa92.00 %4.30 °C 
06:30:004.50 °C1025.90 hPa93.00 %3.50 °C 
06:15:003.60 °C1025.80 hPa93.00 %15.48 km/hOSO3.60 °C2.60 °C 
06:00:003.30 °C1025.80 hPa93.00 %2.30 °C 
05:45:003.00 °C1025.90 hPa92.00 %1.80 °C 
05:30:002.90 °C1025.90 hPa92.00 %1.70 °C 
05:15:002.90 °C1025.90 hPa92.00 %1.70 °C 
05:00:003.10 °C1025.80 hPa92.00 %1.90 °C 
04:45:003.10 °C1025.70 hPa92.00 %1.90 °C 
04:30:003.30 °C1025.60 hPa91.00 %2.00 °C 
04:15:003.50 °C1025.70 hPa92.00 %2.30 °C 
04:00:003.60 °C1025.60 hPa91.00 %2.30 °C 
03:45:003.60 °C1025.80 hPa91.00 %2.30 °C 
03:30:003.80 °C1025.90 hPa91.00 %2.50 °C 
03:15:003.90 °C1025.90 hPa91.00 %2.60 °C 
03:00:004.20 °C1025.90 hPa91.00 %2.90 °C 
02:45:004.20 °C1026.00 hPa91.00 %2.90 °C 
02:30:004.10 °C1026.10 hPa91.00 %2.80 °C 
02:15:004.30 °C1026.10 hPa90.00 %2.80 °C 
02:00:004.70 °C1026.10 hPa91.00 %3.40 °C 
01:45:004.70 °C1026.10 hPa91.00 %3.96 km/hOSO4.70 °C3.40 °C 
01:30:004.80 °C1026.50 hPa91.00 %3.50 °C 
01:15:004.90 °C1026.40 hPa90.00 %3.40 °C 
01:00:004.90 °C1026.20 hPa90.00 %3.40 °C 
00:45:005.10 °C1026.30 hPa89.00 %3.40 °C 
00:30:005.40 °C1026.20 hPa89.00 %3.70 °C 
00:15:005.80 °C1026.10 hPa89.00 %4.10 °C 
00:00:006.00 °C1026.00 hPa89.00 %4.30 °C 

Permanenter Link zu dieser Seite: Wetter im Erzgebirge am 16.05.2017
Performance-Info: Die Erstellung der Seite / Statistik(en) / Tabelle(n) erforderte 5 Datenbankserver-Abfrage(n) und dauerte 106 Millisekunden. (Dieser Messwert ist von der Gesamt-Auslastung des Servers abhängig.)
Erzgebirge - Wetter | Erzgebirge - Wetter (Mobilgeräte) | Komplette Klimadatenbank